Time;durP1;ratioP1;P1;durP2;ratioP2;P2;SDS_P1;SDS_P2;PMS_P1;PMS_P2;Temp;Humidity;BMP_temperature;BMP_pressure;BME280_temperature;BME280_humidity;BME280_pressure;Samples;Min_cycle;Max_cycle;Signal;HPM_P1;HPM_P2
2021/11/22 00:01:35;;;;;;;26.17;7.50;;;;;;;4.42;86.85;101491.31;5060795;28;20035;-69
2021/11/22 00:04:02;;;;;;;32.53;8.20;;;;;;;4.42;87.32;101491.31;5093472;28;20065;-69
2021/11/22 00:06:29;;;;;;;33.38;7.65;;;;;;;4.47;87.23;101497.13;5093537;28;20047;-69
2021/11/22 00:08:56;;;;;;;30.08;6.40;;;;;;;4.48;86.77;101495.38;5093910;28;20040;-69
2021/11/22 00:11:23;;;;;;;30.52;7.63;;;;;;;4.49;86.54;101494.41;5093936;28;20543;-69
2021/11/22 00:13:50;;;;;;;26.33;6.65;;;;;;;4.48;86.75;101500.63;5093782;28;20043;-68
2021/11/22 00:16:16;;;;;;;29.98;6.88;;;;;;;4.48;86.75;101490.13;5077094;28;20044;-69
2021/11/22 00:18:44;;;;;;;21.60;6.38;;;;;;;4.45;86.80;101492.94;5093717;28;20438;-69
2021/11/22 00:21:11;;;;;;;21.15;6.13;;;;;;;4.42;86.87;101497.44;5094590;28;20051;-69
2021/11/22 00:23:37;;;;;;;23.13;7.03;;;;;;;4.40;86.92;101495.81;5093458;28;20048;-69
2021/11/22 00:26:05;;;;;;;22.23;6.78;;;;;;;4.39;86.53;101496.78;5094947;28;20044;-69
2021/11/22 00:28:33;;;;;;;18.48;5.40;;;;;;;4.34;87.10;101491.81;5094777;28;20492;-69
2021/11/22 00:31:11;;;;;;;26.77;6.90;;;;;;;4.34;86.86;101497.06;5092514;28;20093;-69
2021/11/22 00:33:51;;;;;;;24.23;6.13;;;;;;;4.30;87.20;101502.63;5092816;28;20382;-69
2021/11/22 00:36:32;;;;;;;26.67;6.53;;;;;;;4.30;87.04;101500.81;5093493;28;20408;-69
2021/11/22 00:38:59;;;;;;;27.10;5.80;;;;;;;4.28;87.46;101500.06;5094513;28;20093;-69
2021/11/22 00:41:26;;;;;;;28.80;5.85;;;;;;;4.25;87.40;101510.75;5093041;28;20040;-69
2021/11/22 00:43:54;;;;;;;18.75;5.95;;;;;;;4.25;87.41;101520.44;5093029;28;20075;-69
2021/11/22 00:46:20;;;;;;;24.73;5.25;;;;;;;4.19;87.79;101514.63;5094095;28;20086;-69
2021/11/22 00:48:47;;;;;;;24.23;5.78;;;;;;;4.21;87.31;101519.78;5076748;28;20101;-69
2021/11/22 00:51:14;;;;;;;20.70;6.38;;;;;;;4.18;87.21;101523.44;5094197;28;20109;-69
2021/11/22 00:53:41;;;;;;;16.42;5.57;;;;;;;4.16;87.69;101524.47;5094264;28;20047;-69
2021/11/22 00:56:07;;;;;;;22.55;6.63;;;;;;;4.14;87.75;101527.19;5092819;28;20044;-69
2021/11/22 00:58:35;;;;;;;18.27;5.70;;;;;;;4.13;87.69;101536.00;5094233;28;20040;-69
2021/11/22 01:01:02;;;;;;;20.20;5.65;;;;;;;4.13;87.75;101532.50;5087521;28;20055;-69
2021/11/22 01:03:28;;;;;;;24.38;6.07;;;;;;;4.13;87.75;101546.50;5095369;28;20040;-69
2021/11/22 01:05:55;;;;;;;27.60;5.90;;;;;;;4.14;87.43;101548.19;5090290;28;20040;-68
2021/11/22 01:08:22;;;;;;;17.75;5.38;;;;;;;4.16;87.68;101559.44;5093782;28;20540;-69
2021/11/22 01:10:49;;;;;;;18.75;5.90;;;;;;;4.16;87.97;101561.22;5093568;28;20036;-69
2021/11/22 01:13:16;;;;;;;22.98;6.07;;;;;;;4.16;87.60;101569.09;5093928;28;20139;-69
2021/11/22 01:15:42;;;;;;;20.73;5.90;;;;;;;4.18;87.96;101568.09;5092616;28;20573;-69
2021/11/22 01:18:09;;;;;;;20.25;5.65;;;;;;;4.18;87.77;101580.34;5093927;28;20047;-69
2021/11/22 01:20:36;;;;;;;18.10;5.95;;;;;;;4.17;87.78;101570.81;5092602;28;20451;-69
2021/11/22 01:23:10;;;;;;;19.13;6.15;;;;;;;4.23;87.96;101578.31;5093517;28;20055;-69
2021/11/22 01:25:38;;;;;;;18.75;5.75;;;;;;;4.29;87.76;101580.56;5092364;28;20789;-69
2021/11/22 01:28:05;;;;;;;29.60;7.00;;;;;;;4.26;87.51;101566.75;5092459;28;20043;-69
2021/11/22 01:30:33;;;;;;;24.38;6.03;;;;;;;4.27;88.09;101576.34;5076047;28;20085;-69
2021/11/22 01:33:00;;;;;;;18.50;5.53;;;;;;;4.28;87.71;101586.75;5072137;28;20444;-69
2021/11/22 01:35:27;;;;;;;16.85;6.35;;;;;;;4.26;87.86;101593.88;5087034;28;20086;-69
2021/11/22 01:37:54;;;;;;;21.88;6.45;;;;;;;4.31;88.16;101604.09;5075642;28;20446;-69
2021/11/22 01:40:23;;;;;;;18.95;6.68;;;;;;;4.30;87.85;101603.28;5093432;28;20044;-69
2021/11/22 01:42:51;;;;;;;18.92;6.57;;;;;;;4.36;87.91;101602.88;5093187;28;20086;-69
2021/11/22 01:45:20;;;;;;;21.30;8.10;;;;;;;4.36;88.25;101609.94;5093265;28;20036;-69
2021/11/22 01:47:47;;;;;;;20.17;7.13;;;;;;;4.42;88.15;101615.66;5092261;28;20447;-69
2021/11/22 01:50:17;;;;;;;23.50;7.43;;;;;;;4.52;87.81;101615.09;5092026;28;20056;-69
2021/11/22 01:52:45;;;;;;;21.42;9.82;;;;;;;4.53;87.23;101614.16;5092082;28;20561;-69
2021/11/22 01:55:15;;;;;;;31.90;10.45;;;;;;;4.53;87.59;101622.03;5093166;28;20032;-69
2021/11/22 01:57:43;;;;;;;27.88;11.05;;;;;;;4.73;87.11;101624.31;5091798;28;20443;-69
2021/11/22 02:00:16;;;;;;;27.63;10.65;;;;;;;4.70;86.93;101629.75;5093051;28;20048;-69
2021/11/22 02:02:46;;;;;;;33.38;11.20;;;;;;;4.73;87.38;101642.72;5071870;28;20102;-69
2021/11/22 02:05:13;;;;;;;35.53;13.52;;;;;;;4.68;86.60;101636.88;5071023;28;20070;-68
2021/11/22 02:07:40;;;;;;;37.50;15.40;;;;;;;4.78;86.85;101647.66;5054998;28;20063;-69
2021/11/22 02:10:07;;;;;;;47.95;16.20;;;;;;;4.90;87.20;101641.66;5080791;28;20063;-69
2021/11/22 02:12:34;;;;;;;44.47;15.55;;;;;;;4.79;86.66;101647.59;5092958;28;20040;-69
2021/11/22 02:15:03;;;;;;;39.75;15.68;;;;;;;4.94;86.79;101655.47;5093030;28;20089;-69
2021/11/22 02:17:32;;;;;;;36.67;17.25;;;;;;;4.90;85.84;101657.44;5092292;28;20044;-68
2021/11/22 02:20:03;;;;;;;43.63;16.92;;;;;;;4.81;86.84;101660.63;5071778;28;20052;-68
2021/11/22 02:22:31;;;;;;;38.70;18.30;;;;;;;4.80;86.95;101670.31;5072250;28;20044;-68
2021/11/22 02:24:59;;;;;;;40.75;17.48;;;;;;;4.86;86.91;101666.47;5091491;28;20089;-68
2021/11/22 02:27:26;;;;;;;45.22;18.23;;;;;;;4.86;86.95;101671.72;5075097;28;20040;-68
2021/11/22 02:29:53;;;;;;;36.85;17.55;;;;;;;4.95;86.56;101668.53;5074556;28;20051;-68
2021/11/22 02:32:20;;;;;;;37.05;17.40;;;;;;;4.92;86.49;101678.38;5091776;28;20131;-68
2021/11/22 02:34:47;;;;;;;36.97;17.05;;;;;;;4.94;86.31;101677.34;5091533;28;20036;-68
2021/11/22 02:37:14;;;;;;;38.28;17.77;;;;;;;5.03;87.02;101675.09;5072918;28;20126;-68
2021/11/22 02:39:40;;;;;;;35.72;17.05;;;;;;;5.01;86.67;101677.81;5091520;28;20048;-68
2021/11/22 02:42:13;;;;;;;36.53;17.23;;;;;;;4.98;86.73;101686.75;5091140;28;20115;-68
2021/11/22 02:44:42;;;;;;;36.25;17.50;;;;;;;5.04;86.85;101684.66;5092469;28;20048;-68
2021/11/22 02:47:09;;;;;;;32.05;16.63;;;;;;;4.95;87.07;101686.94;5074935;28;20097;-69
2021/11/22 02:49:36;;;;;;;37.55;16.92;;;;;;;4.89;87.36;101683.81;5091418;28;20052;-68
2021/11/22 02:52:03;;;;;;;43.10;17.48;;;;;;;5.07;86.88;101687.94;5090648;28;20056;-68
2021/11/22 02:54:30;;;;;;;33.63;17.17;;;;;;;4.98;87.12;101686.75;5091157;28;20036;-69
2021/11/22 02:56:57;;;;;;;34.78;18.30;;;;;;;4.97;87.06;101697.34;5092205;28;20047;-68
2021/11/22 02:59:25;;;;;;;31.63;17.88;;;;;;;5.17;87.20;101698.75;5092405;28;20400;-68
2021/11/22 03:01:52;;;;;;;40.53;17.60;;;;;;;5.33;87.04;101698.63;5092530;28;20048;-68
2021/11/22 03:04:29;;;;;;;39.88;17.67;;;;;;;5.19;86.15;101694.25;5072961;28;20050;-69
2021/11/22 03:06:56;;;;;;;39.03;17.73;;;;;;;5.26;86.01;101705.25;5092516;28;20127;-68
2021/11/22 03:09:23;;;;;;;33.70;18.25;;;;;;;5.27;86.61;101705.13;5092138;28;20040;-68
2021/11/22 03:11:50;;;;;;;37.20;19.48;;;;;;;5.40;86.31;101707.81;5091194;28;20047;-68
2021/11/22 03:14:17;;;;;;;32.92;18.63;;;;;;;5.26;85.96;101708.72;5091156;28;20546;-68
2021/11/22 03:16:44;;;;;;;37.17;19.13;;;;;;;5.43;86.45;101715.53;5091136;28;20115;-68
2021/11/22 03:19:10;;;;;;;37.50;20.30;;;;;;;5.31;85.51;101717.16;5092424;28;20047;-68
2021/11/22 03:21:37;;;;;;;41.15;20.27;;;;;;;5.31;85.60;101727.69;5092010;28;20407;-68
2021/11/22 03:24:04;;;;;;;34.92;19.52;;;;;;;5.42;85.16;101723.50;5110469;28;20096;-68
2021/11/22 03:26:31;;;;;;;37.35;20.60;;;;;;;5.50;85.52;101735.25;5093732;28;20072;-68
2021/11/22 03:28:58;;;;;;;37.30;19.10;;;;;;;5.48;85.37;101720.50;5094415;28;20107;-68
2021/11/22 03:31:24;;;;;;;37.78;18.30;;;;;;;5.47;85.38;101734.59;5114273;28;20122;-68
2021/11/22 03:33:52;;;;;;;35.30;19.42;;;;;;;5.33;85.52;101731.06;5114635;28;20050;-68
2021/11/22 03:36:19;;;;;;;36.63;19.42;;;;;;;5.48;85.67;101742.41;5114632;28;20046;-68
2021/11/22 03:38:45;;;;;;;32.10;18.17;;;;;;;5.39;85.47;101740.34;5115741;28;20035;-68
2021/11/22 03:41:16;;;;;;;39.40;19.08;;;;;;;5.32;85.87;101742.50;5105469;28;20054;-68
2021/11/22 03:43:47;;;;;;;34.50;17.98;;;;;;;5.25;85.24;101733.31;5094538;28;20564;-68
2021/11/22 03:46:16;;;;;;;34.22;18.70;;;;;;;5.31;85.88;101743.47;5058119;28;20087;-68
2021/11/22 03:48:44;;;;;;;34.83;17.63;;;;;;;5.54;85.82;101752.53;5075434;28;20053;-68
2021/11/22 03:51:11;;;;;;;34.05;17.33;;;;;;;5.70;85.33;101756.84;5074709;28;20041;-68
2021/11/22 03:53:37;;;;;;;31.42;16.55;;;;;;;5.63;84.50;101761.66;5075293;28;20402;-68
2021/11/22 03:56:04;;;;;;;30.50;17.45;;;;;;;5.70;84.97;101776.13;5090709;28;20111;-68
2021/11/22 03:58:32;;;;;;;31.38;17.17;;;;;;;5.67;84.45;101775.47;5094256;28;20040;-68
2021/11/22 04:00:59;;;;;;;28.80;16.27;;;;;;;5.66;85.86;101777.25;5095197;28;20069;-68
2021/11/22 04:03:26;;;;;;;30.67;16.02;;;;;;;5.70;85.37;101781.38;5076545;28;20044;-69
2021/11/22 04:05:53;;;;;;;31.40;16.40;;;;;;;5.61;85.59;101784.59;5093128;28;20032;-68
2021/11/22 04:08:20;;;;;;;28.48;15.45;;;;;;;5.56;84.74;101790.13;5077359;28;20054;-68
2021/11/22 04:10:46;;;;;;;30.50;16.10;;;;;;;5.49;85.39;101788.81;5094130;28;20036;-68
2021/11/22 04:13:13;;;;;;;32.63;15.95;;;;;;;5.57;84.90;101799.75;5077037;28;20040;-68
2021/11/22 04:15:41;;;;;;;22.45;13.82;;;;;;;5.55;83.95;101804.25;5093911;28;20062;-68
2021/11/22 04:18:09;;;;;;;33.95;14.23;;;;;;;5.65;84.25;101799.25;5094687;28;20040;-68
2021/11/22 04:20:36;;;;;;;21.27;13.52;;;;;;;5.62;84.07;101812.63;5093682;28;20052;-68
2021/11/22 04:23:04;;;;;;;26.67;14.07;;;;;;;5.73;83.65;101814.56;5094732;28;20508;-68
2021/11/22 04:25:32;;;;;;;25.02;13.20;;;;;;;5.55;82.22;101824.47;5093611;28;20040;-68
2021/11/22 04:27:59;;;;;;;22.48;12.80;;;;;;;5.62;82.35;101827.56;5093688;28;20040;-68
2021/11/22 04:30:26;;;;;;;23.90;13.90;;;;;;;5.79;83.08;101823.88;5093114;28;20055;-68
2021/11/22 04:32:53;;;;;;;21.15;12.98;;;;;;;5.88;82.04;101829.41;5093062;28;20508;-68
2021/11/22 04:35:20;;;;;;;24.15;13.40;;;;;;;5.90;82.54;101826.69;5077068;28;20097;-68
2021/11/22 04:37:47;;;;;;;23.33;13.48;;;;;;;5.87;82.10;101825.06;5093516;28;20051;-68
2021/11/22 04:40:16;;;;;;;29.80;15.27;;;;;;;6.01;81.73;101844.47;5093274;28;20044;-68
2021/11/22 04:42:47;;;;;;;26.00;14.40;;;;;;;5.81;82.00;101840.44;5094412;28;20047;-68
2021/11/22 04:45:18;;;;;;;23.55;14.60;;;;;;;5.73;81.93;101839.13;5094068;28;20048;-68
2021/11/22 04:47:47;;;;;;;26.65;15.38;;;;;;;5.69;81.78;101845.50;5093407;28;20036;-68
2021/11/22 04:50:15;;;;;;;24.52;14.35;;;;;;;5.68;81.90;101854.34;5093010;28;20036;-68
2021/11/22 04:52:44;;;;;;;28.30;14.18;;;;;;;5.74;81.33;101859.22;5094418;28;20504;-68
2021/11/22 04:55:14;;;;;;;23.90;13.77;;;;;;;5.79;81.21;101858.97;5093070;28;20040;-68
2021/11/22 04:57:42;;;;;;;24.58;14.02;;;;;;;5.77;81.32;101859.03;5094340;28;20040;-68
2021/11/22 05:00:10;;;;;;;22.67;13.95;;;;;;;5.84;81.17;101863.91;5092856;28;20055;-68
2021/11/22 05:02:39;;;;;;;22.40;13.35;;;;;;;5.88;80.62;101865.44;5076197;28;20611;-68
2021/11/22 05:05:07;;;;;;;21.20;13.05;;;;;;;5.96;81.46;101873.72;5090996;28;20040;-68
2021/11/22 05:07:34;;;;;;;18.42;11.88;;;;;;;5.92;80.42;101872.19;5092893;28;20511;-68
2021/11/22 05:10:00;;;;;;;19.55;11.38;;;;;;;5.84;80.44;101879.72;5072435;28;20048;-68
2021/11/22 05:12:27;;;;;;;16.73;10.23;;;;;;;5.74;79.13;101880.28;5073288;28;20143;-68
2021/11/22 05:14:54;;;;;;;17.92;9.65;;;;;;;5.85;79.41;101887.53;5073560;28;20088;-68
2021/11/22 05:17:21;;;;;;;18.85;10.27;;;;;;;5.76;79.52;101885.47;5072451;28;20123;-68
2021/11/22 05:19:47;;;;;;;17.10;10.45;;;;;;;5.79;79.43;101882.66;5073545;28;20036;-68
2021/11/22 05:22:24;;;;;;;17.77;10.13;;;;;;;5.70;79.23;101885.84;5070246;28;20509;-68
2021/11/22 05:24:51;;;;;;;18.48;10.85;;;;;;;5.62;79.99;101896.00;5093472;28;20511;-68
2021/11/22 05:27:21;;;;;;;18.48;10.88;;;;;;;5.75;80.04;101894.31;5059342;28;20108;-68
2021/11/22 05:29:49;;;;;;;17.60;10.48;;;;;;;5.66;80.12;101901.00;5093445;28;20040;-68
2021/11/22 05:32:17;;;;;;;19.35;11.27;;;;;;;5.56;80.77;101911.22;5090542;28;20550;-68
2021/11/22 05:34:45;;;;;;;17.52;11.05;;;;;;;5.53;81.35;101921.09;5073127;28;20045;-68
2021/11/22 05:37:13;;;;;;;18.60;11.27;;;;;;;5.57;80.83;101923.47;5092219;28;20089;-68
2021/11/22 05:39:40;;;;;;;21.38;10.35;;;;;;;5.55;81.13;101927.13;5084862;28;20049;-68
2021/11/22 05:42:07;;;;;;;16.73;9.95;;;;;;;5.58;79.85;101930.44;5072003;28;20094;-68
2021/11/22 05:44:35;;;;;;;15.82;9.43;;;;;;;5.60;79.27;101937.38;5073027;28;20413;-68
2021/11/22 05:47:04;;;;;;;18.50;9.98;;;;;;;5.56;79.16;101939.34;5086901;28;20169;-68
2021/11/22 05:49:33;;;;;;;16.98;9.82;;;;;;;5.58;79.49;101942.72;5075419;28;20042;-70
2021/11/22 05:52:00;;;;;;;15.80;9.77;;;;;;;5.47;79.72;101942.53;5101762;28;20048;-68
2021/11/22 05:54:30;;;;;;;18.30;9.80;;;;;;;5.34;79.31;101942.41;5112241;28;20046;-68
2021/11/22 05:56:59;;;;;;;17.67;9.73;;;;;;;5.34;79.88;101950.31;5112228;28;20404;-69
2021/11/22 05:59:26;;;;;;;15.57;9.15;;;;;;;5.28;80.67;101961.19;5113095;28;20492;-69
2021/11/22 06:01:53;;;;;;;15.75;9.27;;;;;;;5.27;80.20;101959.50;5106093;28;20043;-68
2021/11/22 06:04:20;;;;;;;19.65;9.55;;;;;;;5.26;80.31;101958.66;5090121;28;20051;-69
2021/11/22 06:06:47;;;;;;;16.52;9.43;;;;;;;5.23;80.52;101960.63;5092796;28;20039;-68
2021/11/22 06:09:15;;;;;;;15.88;8.95;;;;;;;5.19;80.66;101968.69;5091928;28;20511;-69
2021/11/22 06:11:43;;;;;;;16.17;9.65;;;;;;;5.17;80.71;101960.03;5091789;28;20039;-69
2021/11/22 06:14:10;;;;;;;18.35;8.90;;;;;;;5.18;80.60;101963.50;5074875;28;20056;-68
2021/11/22 06:16:37;;;;;;;15.63;9.10;;;;;;;5.23;80.63;101957.97;5092964;28;20495;-68
2021/11/22 06:19:03;;;;;;;18.65;9.80;;;;;;;5.24;80.39;101967.56;5092379;28;20044;-68
2021/11/22 06:21:30;;;;;;;15.38;8.85;;;;;;;5.27;80.57;101968.22;5092246;28;20412;-68
2021/11/22 06:23:59;;;;;;;18.52;9.38;;;;;;;5.29;79.96;101976.88;5091394;28;20039;-69
2021/11/22 06:26:25;;;;;;;18.63;9.73;;;;;;;5.22;79.71;101977.31;5105201;28;20043;-69
2021/11/22 06:28:52;;;;;;;19.00;10.57;;;;;;;5.12;81.21;101984.91;5113186;28;20122;-69
2021/11/22 06:31:20;;;;;;;19.75;10.00;;;;;;;4.98;80.54;101983.06;5092302;28;20044;-68
2021/11/22 06:33:46;;;;;;;18.85;10.27;;;;;;;5.08;81.80;101993.91;5090374;28;20558;-69
2021/11/22 06:36:13;;;;;;;18.35;11.15;;;;;;;5.08;80.67;101997.38;5082961;28;20729;-69
2021/11/22 06:38:41;;;;;;;19.15;11.80;;;;;;;5.02;80.84;101996.88;5092599;28;20044;-68
2021/11/22 06:41:08;;;;;;;19.80;11.73;;;;;;;5.06;81.02;101999.25;5092150;28;20101;-69
2021/11/22 06:43:35;;;;;;;23.40;12.23;;;;;;;5.03;80.22;101999.44;5074750;28;20520;-68
2021/11/22 06:46:01;;;;;;;20.20;11.32;;;;;;;4.98;79.84;102004.09;5074259;28;20043;-69
2021/11/22 06:48:28;;;;;;;19.77;11.75;;;;;;;5.15;79.56;102013.69;5057908;28;20138;-68
2021/11/22 06:50:55;;;;;;;18.15;11.07;;;;;;;5.02;78.80;102005.63;5092254;28;20044;-68
2021/11/22 06:53:22;;;;;;;23.13;12.05;;;;;;;5.04;79.36;102021.31;5092283;28;20508;-68
2021/11/22 06:55:50;;;;;;;19.88;12.15;;;;;;;4.94;78.95;102026.25;5090804;28;20040;-68
2021/11/22 06:58:16;;;;;;;19.10;12.18;;;;;;;4.94;79.41;102026.25;5074481;28;20416;-69
2021/11/22 07:00:43;;;;;;;20.83;12.23;;;;;;;4.91;79.66;102034.31;5090529;28;20048;-69
2021/11/22 07:03:10;;;;;;;19.63;12.32;;;;;;;5.02;78.85;102036.34;5092226;28;20113;-69
2021/11/22 07:05:37;;;;;;;23.10;12.65;;;;;;;5.19;78.96;102041.50;5094221;28;20036;-68
2021/11/22 07:08:07;;;;;;;20.85;12.75;;;;;;;5.06;78.34;102051.00;5096410;28;20040;-69
2021/11/22 07:10:34;;;;;;;19.85;11.93;;;;;;;5.01;78.39;102038.13;5095268;28;20493;-68
2021/11/22 07:13:02;;;;;;;19.85;11.95;;;;;;;5.07;78.20;102063.22;5075130;28;20063;-69
2021/11/22 07:15:37;;;;;;;19.30;12.60;;;;;;;5.05;77.87;102065.94;5079025;28;20044;-68
2021/11/22 07:18:04;;;;;;;22.20;12.27;;;;;;;5.07;78.04;102063.22;5075796;28;20119;-68
2021/11/22 07:20:32;;;;;;;19.77;12.77;;;;;;;5.23;78.44;102079.00;5072273;28;20102;-68
2021/11/22 07:22:59;;;;;;;22.67;13.15;;;;;;;5.12;78.14;102080.44;5082308;28;20044;-69
2021/11/22 07:25:26;;;;;;;20.90;13.77;;;;;;;5.03;79.16;102088.84;5077746;28;20097;-69
2021/11/22 07:27:53;;;;;;;24.05;14.45;;;;;;;5.07;78.91;102098.25;5077702;28;20036;-69
2021/11/22 07:30:21;;;;;;;20.27;13.50;;;;;;;5.16;79.00;102096.91;5090091;28;20036;-67
2021/11/22 07:32:53;;;;;;;27.45;14.88;;;;;;;5.19;79.03;102115.16;5096981;28;20057;-67
2021/11/22 07:35:22;;;;;;;30.23;14.48;;;;;;;5.18;78.51;102111.69;5094372;28;20036;-67
2021/11/22 07:37:49;;;;;;;22.48;13.90;;;;;;;5.14;78.66;102117.19;5096225;28;20807;-67
2021/11/22 07:40:22;;;;;;;21.85;13.27;;;;;;;5.15;77.64;102125.00;5107464;28;20492;-69
2021/11/22 07:42:50;;;;;;;19.00;12.50;;;;;;;5.15;77.67;102119.75;5104646;28;20100;-69
2021/11/22 07:45:18;;;;;;;23.33;13.10;;;;;;;5.33;77.50;102124.91;5109411;28;20155;-70
2021/11/22 07:47:45;;;;;;;23.17;14.63;;;;;;;5.32;77.74;102136.38;5096256;28;20040;-69
2021/11/22 07:50:12;;;;;;;24.45;16.30;;;;;;;5.16;78.78;102133.75;5101480;28;20044;-69
2021/11/22 07:52:39;;;;;;;26.08;16.52;;;;;;;5.14;79.20;102143.50;5101662;28;20477;-69
2021/11/22 07:55:06;;;;;;;29.23;18.55;;;;;;;5.11;79.23;102143.66;5085098;28;20111;-69
2021/11/22 07:57:32;;;;;;;29.80;17.58;;;;;;;5.17;80.13;102149.44;5071244;27;20031;-63
2021/11/22 07:59:59;;;;;;;28.08;18.63;;;;;;;5.11;79.35;102156.81;5105108;28;20499;-63
2021/11/22 08:02:26;;;;;;;26.98;17.77;;;;;;;5.17;78.85;102154.72;5096283;28;20127;-63
2021/11/22 08:04:53;;;;;;;28.77;18.35;;;;;;;5.06;79.14;102161.47;5087109;28;20476;-65
2021/11/22 08:07:21;;;;;;;30.25;19.13;;;;;;;5.05;79.75;102165.88;5093964;28;20094;-64
2021/11/22 08:09:59;;;;;;;30.25;17.45;;;;;;;5.15;78.50;102163.63;5093839;28;20040;-69
2021/11/22 08:12:30;;;;;;;27.25;16.65;;;;;;;5.21;78.32;102172.97;5091538;28;20528;-69
2021/11/22 08:15:00;;;;;;;33.50;18.15;;;;;;;5.24;78.42;102175.41;5097430;28;20084;-69
2021/11/22 08:17:29;;;;;;;29.42;18.60;;;;;;;5.11;78.06;102183.13;5105247;28;20028;-70
2021/11/22 08:19:57;;;;;;;28.92;18.13;;;;;;;5.25;78.31;102185.84;5076587;28;20447;-69
2021/11/22 08:22:25;;;;;;;26.80;17.77;;;;;;;5.26;78.31;102190.19;5090749;28;20052;-69
2021/11/22 08:24:53;;;;;;;28.13;16.73;;;;;;;5.38;77.54;102186.03;5106144;28;20093;-70
2021/11/22 08:27:22;;;;;;;32.60;17.83;;;;;;;5.28;78.01;102201.47;5098674;28;20062;-69
2021/11/22 08:29:49;;;;;;;29.02;17.33;;;;;;;5.19;78.14;102204.63;5090447;28;20050;-69
2021/11/22 08:32:19;;;;;;;27.27;16.75;;;;;;;5.30;78.20;102210.13;5094082;28;20063;-70
2021/11/22 08:34:46;;;;;;;34.00;16.83;;;;;;;5.35;78.23;102208.09;5092225;28;20043;-70
2021/11/22 08:37:13;;;;;;;27.70;16.60;;;;;;;5.47;77.66;102206.56;5099522;28;20036;-69
2021/11/22 08:39:40;;;;;;;28.17;15.73;;;;;;;5.39;77.26;102216.69;5091542;28;20527;-69
2021/11/22 08:42:08;;;;;;;32.08;16.35;;;;;;;5.31;77.10;102221.50;5091097;28;20040;-69
2021/11/22 08:44:35;;;;;;;27.58;16.17;;;;;;;5.41;77.32;102227.13;5095840;28;20101;-69
2021/11/22 08:47:04;;;;;;;27.30;15.23;;;;;;;5.51;77.38;102223.91;5094368;28;20036;-69
2021/11/22 08:49:32;;;;;;;29.10;14.55;;;;;;;5.21;77.28;102238.75;5075567;28;20040;-70
2021/11/22 08:51:59;;;;;;;25.52;14.32;;;;;;;5.44;77.31;102234.84;5091653;28;20044;-69
2021/11/22 08:54:27;;;;;;;22.88;13.40;;;;;;;5.44;76.44;102246.25;5092632;28;20047;-69
2021/11/22 08:56:54;;;;;;;24.60;13.55;;;;;;;5.33;76.50;102243.31;5091509;28;20036;-69
2021/11/22 08:59:20;;;;;;;24.35;13.35;;;;;;;5.28;76.88;102246.22;5091228;28;20071;-69
2021/11/22 09:01:47;;;;;;;24.35;13.75;;;;;;;5.43;76.18;102255.06;5090234;28;21220;-69
2021/11/22 09:04:14;;;;;;;26.95;13.85;;;;;;;5.48;76.89;102247.75;5089905;28;20036;-69
2021/11/22 09:06:41;;;;;;;27.02;13.32;;;;;;;5.58;75.42;102253.34;5089250;28;20392;-69
2021/11/22 09:09:09;;;;;;;25.95;13.13;;;;;;;5.50;75.37;102252.94;5094687;28;20526;-68
2021/11/22 09:11:37;;;;;;;26.95;13.15;;;;;;;5.54;74.96;102265.00;5090783;28;20044;-69
2021/11/22 09:14:05;;;;;;;22.27;13.32;;;;;;;5.37;75.25;102260.66;5092573;28;20043;-68
2021/11/22 09:16:32;;;;;;;23.50;12.35;;;;;;;5.44;75.33;102269.06;5100832;28;20499;-68
2021/11/22 09:19:01;;;;;;;27.30;14.13;;;;;;;5.62;75.17;102262.81;5099404;28;20040;-69
2021/11/22 09:21:27;;;;;;;25.27;13.07;;;;;;;5.66;74.11;102272.22;5095569;28;20052;-69
2021/11/22 09:23:56;;;;;;;27.40;12.75;;;;;;;5.73;73.75;102273.59;5093603;28;20056;-68
2021/11/22 09:26:23;;;;;;;22.52;12.90;;;;;;;5.64;74.61;102276.75;5090660;28;20063;-69
2021/11/22 09:28:50;;;;;;;26.80;13.77;;;;;;;5.45;74.80;102281.28;5099594;28;20047;-68
2021/11/22 09:31:17;;;;;;;25.60;14.45;;;;;;;5.70;74.21;102279.03;5092552;28;20036;-69
2021/11/22 09:33:45;;;;;;;26.60;14.13;;;;;;;5.67;75.01;102288.88;5088383;28;20039;-68
2021/11/22 09:36:13;;;;;;;23.30;14.50;;;;;;;5.71;75.87;102290.41;5097507;28;20058;-68
2021/11/22 09:38:41;;;;;;;23.63;14.80;;;;;;;5.70;75.56;102294.81;5100887;28;20435;-69
2021/11/22 09:41:08;;;;;;;26.48;14.18;;;;;;;5.91;75.26;102300.69;5091134;28;20063;-70
2021/11/22 09:43:36;;;;;;;22.48;13.00;;;;;;;5.86;74.56;102294.81;5091275;28;20119;-69
2021/11/22 09:46:04;;;;;;;22.63;13.05;;;;;;;5.63;74.02;102305.78;5090377;28;20063;-69
2021/11/22 09:48:30;;;;;;;22.70;13.40;;;;;;;5.69;74.06;102313.31;5088985;28;20041;-70
2021/11/22 09:50:57;;;;;;;22.60;13.30;;;;;;;5.94;74.39;102316.31;5094958;28;20040;-70
2021/11/22 09:53:24;;;;;;;21.95;13.80;;;;;;;6.07;74.21;102328.84;5095788;28;20052;-70
2021/11/22 09:55:51;;;;;;;22.58;14.55;;;;;;;6.07;73.85;102313.03;5087128;28;20048;-70
2021/11/22 09:58:18;;;;;;;22.98;14.25;;;;;;;5.92;73.24;102320.81;5061690;28;20062;-70
2021/11/22 10:00:51;;;;;;;24.55;13.90;;;;;;;5.72;74.58;102321.06;5088410;28;20040;-69
2021/11/22 10:03:22;;;;;;;22.85;14.15;;;;;;;5.52;75.32;102322.16;5074146;28;20116;-69
2021/11/22 10:05:58;;;;;;;24.00;14.50;;;;;;;5.50;75.38;102326.66;5099368;28;20507;-69
2021/11/22 10:08:25;;;;;;;23.83;14.10;;;;;;;5.65;74.71;102323.19;5090364;28;20511;-69
2021/11/22 10:10:55;;;;;;;26.77;14.80;;;;;;;5.64;74.86;102328.53;5087330;28;20518;-69
2021/11/22 10:18:58;;;;;;;22.27;13.95;;;;;;;5.50;73.97;102329.28;5123458;27;20353;-68
2021/11/22 10:21:26;;;;;;;;;;;;;;;5.47;73.95;102330.28;5091954;28;20135;-68
2021/11/22 10:24:00;;;;;;;22.73;13.13;;;;;;;5.60;73.77;102329.63;5081630;28;19920;-68
2021/11/22 10:26:36;;;;;;;27.15;13.70;;;;;;;5.49;72.64;102335.47;5099651;28;20126;-67
2021/11/22 10:29:03;;;;;;;22.73;13.27;;;;;;;5.49;73.10;102335.47;5096631;28;20046;-69
2021/11/22 10:31:31;;;;;;;20.85;12.30;;;;;;;5.43;72.26;102326.13;5105021;28;20051;-69
2021/11/22 10:33:58;;;;;;;21.90;12.52;;;;;;;5.70;72.90;102323.78;5098806;28;20040;-69
2021/11/22 10:36:27;;;;;;;21.48;12.85;;;;;;;5.94;72.12;102333.91;5087442;28;20043;-70
2021/11/22 10:38:57;;;;;;;20.33;12.88;;;;;;;6.01;71.40;102334.47;5105822;28;20043;-67
2021/11/22 10:41:31;;;;;;;21.75;13.00;;;;;;;6.30;71.48;102338.09;5096815;28;20097;-67
2021/11/22 10:44:05;;;;;;;20.98;13.15;;;;;;;6.91;69.06;102331.88;5103503;28;20043;-67
2021/11/22 10:46:43;;;;;;;23.75;12.05;;;;;;;7.37;66.17;102332.66;5086026;28;20124;-67
2021/11/22 10:49:15;;;;;;;20.88;12.57;;;;;;;7.36;67.25;102336.25;5081038;28;20096;-68
2021/11/22 10:51:46;;;;;;;21.65;11.48;;;;;;;7.11;67.31;102327.19;5063826;28;20056;-68
2021/11/22 10:54:15;;;;;;;18.05;11.65;;;;;;;7.17;65.74;102331.22;5059504;28;20047;-67
2021/11/22 10:56:47;;;;;;;17.60;10.57;;;;;;;7.60;64.95;102333.88;5095714;28;20036;-68
2021/11/22 10:59:20;;;;;;;17.15;10.30;;;;;;;8.31;61.92;102334.66;5075779;28;20040;-68
2021/11/22 11:01:53;;;;;;;15.75;9.45;;;;;;;10.43;56.19;102329.69;5082024;28;20048;-67
2021/11/22 11:04:25;;;;;;;15.73;9.93;;;;;;;11.23;52.68;102331.59;5075951;28;20059;-68
2021/11/22 11:07:00;;;;;;;;;;;;;;;12.15;49.42;102342.91;5097930;28;20043;-68
2021/11/22 11:09:33;;;;;;;14.38;8.88;;;;;;;12.34;49.56;102333.41;5083195;28;19927;-68
2021/11/22 11:12:13;;;;;;;16.05;9.52;;;;;;;14.46;45.30;102322.94;5074584;28;20881;-69
2021/11/22 11:14:45;;;;;;;17.67;8.98;;;;;;;15.04;42.70;102318.50;5080502;28;20485;-68
2021/11/22 11:17:33;;;;;;;14.43;8.57;;;;;;;15.16;42.32;102320.03;5081203;28;20565;-69
2021/11/22 11:20:17;;;;;;;13.00;7.97;;;;;;;15.62;41.16;102325.47;5106455;28;21360;-69
2021/11/22 11:22:45;;;;;;;12.35;7.40;;;;;;;15.21;41.74;102336.47;5100193;28;20036;-69
2021/11/22 11:25:14;;;;;;;11.88;7.30;;;;;;;15.07;41.67;102337.78;5068452;28;20051;-68
2021/11/22 11:27:44;;;;;;;15.85;8.40;;;;;;;13.75;43.95;102337.34;5083656;28;20044;-69
2021/11/22 11:30:14;;;;;;;14.57;7.10;;;;;;;14.46;43.02;102341.66;5080465;28;20052;-69